Time;durP1;ratioP1;P1;durP2;ratioP2;P2;SDS_P1;SDS_P2;PMS_P1;PMS_P2;Temp;Humidity;BMP_temperature;BMP_pressure;BME280_temperature;BME280_humidity;BME280_pressure;Samples;Min_cycle;Max_cycle;Signal;HPM_P1;HPM_P2
2022/10/05 00:03:43;;;;;;;9.85;7.72;;;;;;;;;;12971041;22;20386;-93
2022/10/05 00:08:44;;;;;;;10.10;7.80;;;;;;;;;;12970140;22;20366;-91
2022/10/05 00:13:48;;;;;;;8.57;7.37;;;;;;;;;;12969914;22;20375;-92
2022/10/05 00:18:51;;;;;;;11.55;7.85;;;;;;;;;;12967442;22;20412;-93
2022/10/05 00:23:58;;;;;;;9.95;7.80;;;;;;;;;;12970076;22;20370;-93
2022/10/05 00:29:02;;;;;;;10.85;7.63;;;;;;;;;;12969116;22;20366;-92
2022/10/05 00:34:04;;;;;;;9.93;7.90;;;;;;;;;;12968970;22;20739;-92
2022/10/05 00:39:06;;;;;;;8.07;7.25;;;;;;;;;;12969614;22;20381;-93
2022/10/05 00:44:24;;;;;;;8.40;7.57;;;;;;;;;;12969268;22;20875;-92
2022/10/05 00:49:41;;;;;;;10.43;7.55;;;;;;;;;;12968922;22;21030;-90
2022/10/05 00:54:48;;;;;;;9.73;7.20;;;;;;;;;;12968651;22;20420;-92
2022/10/05 01:00:00;;;;;;;9.33;7.57;;;;;;;;;;12970893;22;20409;-91
2022/10/05 01:05:10;;;;;;;8.68;7.70;;;;;;;;;;12972980;22;20839;-91
2022/10/05 01:10:22;;;;;;;8.65;7.53;;;;;;;;;;12972706;22;20437;-92
2022/10/05 01:15:31;;;;;;;9.32;7.53;;;;;;;;;;12972974;22;20363;-92
2022/10/05 01:20:45;;;;;;;9.50;7.22;;;;;;;;;;12971248;22;20378;-92
2022/10/05 01:25:57;;;;;;;8.82;7.13;;;;;;;;;;12971833;22;20398;-92
2022/10/05 01:31:17;;;;;;;10.77;7.73;;;;;;;;;;12972043;22;20398;-92
2022/10/05 01:36:28;;;;;;;8.80;7.10;;;;;;;;;;12972631;22;20688;-92
2022/10/05 01:41:36;;;;;;;7.83;6.73;;;;;;;;;;12972576;22;20739;-91
2022/10/05 01:46:50;;;;;;;8.10;7.30;;;;;;;;;;12971279;22;20378;-93
2022/10/05 01:52:09;;;;;;;9.77;7.90;;;;;;;;;;12971867;22;20378;-91
2022/10/05 01:57:24;;;;;;;8.40;6.95;;;;;;;;;;12973609;22;20432;-92
2022/10/05 02:02:31;;;;;;;8.40;7.57;;;;;;;;;;12972351;22;20448;-92
2022/10/05 02:07:38;;;;;;;9.60;7.63;;;;;;;;;;12972321;22;20645;-92
2022/10/05 02:12:42;;;;;;;9.25;7.68;;;;;;;;;;12971210;22;20917;-91
2022/10/05 02:17:49;;;;;;;8.67;7.17;;;;;;;;;;12971890;22;20742;-91
2022/10/05 02:22:53;;;;;;;8.23;7.30;;;;;;;;;;12972169;22;20378;-92
2022/10/05 02:27:59;;;;;;;9.17;7.50;;;;;;;;;;12971275;22;20366;-92
2022/10/05 02:33:06;;;;;;;10.82;7.68;;;;;;;;;;12971928;22;20688;-91
2022/10/05 02:38:14;;;;;;;8.07;6.93;;;;;;;;;;12971855;22;20371;-92
2022/10/05 02:43:27;;;;;;;8.33;7.13;;;;;;;;;;12972148;22;20374;-93
2022/10/05 02:48:42;;;;;;;9.23;8.10;;;;;;;;;;12970489;22;20370;-92
2022/10/05 02:53:55;;;;;;;8.30;7.50;;;;;;;;;;12970703;22;20367;-92
2022/10/05 02:59:04;;;;;;;10.90;7.55;;;;;;;;;;12970796;22;20444;-92
2022/10/05 03:04:17;;;;;;;8.75;7.43;;;;;;;;;;12971290;22;20367;-92
2022/10/05 03:09:21;;;;;;;8.30;6.90;;;;;;;;;;12970885;22;20420;-91
2022/10/05 03:14:28;;;;;;;8.55;7.07;;;;;;;;;;12971330;22;20436;-92
2022/10/05 03:19:55;;;;;;;7.53;6.63;;;;;;;;;;12969884;22;20382;-92
2022/10/05 03:25:24;;;;;;;7.88;6.90;;;;;;;;;;12969704;22;20355;-92
2022/10/05 03:30:33;;;;;;;12.45;7.05;;;;;;;;;;12969986;22;20366;-92
2022/10/05 03:35:50;;;;;;;8.38;7.00;;;;;;;;;;12955969;22;20649;-93
2022/10/05 03:40:57;;;;;;;8.82;6.70;;;;;;;;;;12970253;22;20378;-91
2022/10/05 03:46:06;;;;;;;8.57;7.13;;;;;;;;;;12968324;22;20374;-91
2022/10/05 03:51:15;;;;;;;8.95;6.80;;;;;;;;;;12965631;22;20379;-93
2022/10/05 03:56:24;;;;;;;8.25;7.13;;;;;;;;;;12966497;22;20378;-91
2022/10/05 04:01:35;;;;;;;8.88;6.68;;;;;;;;;;12964566;22;20378;-93
2022/10/05 04:06:44;;;;;;;8.32;6.68;;;;;;;;;;12961122;22;20839;-91
2022/10/05 04:11:52;;;;;;;8.40;6.43;;;;;;;;;;12964133;22;20366;-92
2022/10/05 04:16:58;;;;;;;7.47;6.40;;;;;;;;;;12969555;22;20370;-92
2022/10/05 04:22:09;;;;;;;10.63;6.82;;;;;;;;;;12969583;22;20405;-93
2022/10/05 04:27:15;;;;;;;7.10;6.40;;;;;;;;;;12969175;22;20366;-94
2022/10/05 04:32:30;;;;;;;7.40;6.60;;;;;;;;;;12964575;22;20370;-93
2022/10/05 04:37:47;;;;;;;8.35;6.50;;;;;;;;;;12973618;22;20393;-92
2022/10/05 04:43:00;;;;;;;6.63;5.93;;;;;;;;;;12973450;22;20440;-91
2022/10/05 04:48:20;;;;;;;7.60;6.30;;;;;;;;;;12972553;22;20367;-93
2022/10/05 04:53:30;;;;;;;8.67;6.33;;;;;;;;;;12974774;22;20735;-92
2022/10/05 04:58:42;;;;;;;9.18;6.38;;;;;;;;;;12976559;22;20381;-92
2022/10/05 05:04:06;;;;;;;8.20;6.40;;;;;;;;;;12975794;22;20424;-93
2022/10/05 05:09:38;;;;;;;7.97;6.50;;;;;;;;;;12969459;22;20370;-93
2022/10/05 05:15:13;;;;;;;7.50;6.70;;;;;;;;;;12977595;22;20885;-92
2022/10/05 05:20:22;;;;;;;7.80;6.32;;;;;;;;;;12966748;22;20869;-91
2022/10/05 05:25:40;;;;;;;7.35;6.45;;;;;;;;;;12972699;22;20370;-93
2022/10/05 05:30:48;;;;;;;7.88;6.60;;;;;;;;;;12974473;22;20377;-91
2022/10/05 05:36:18;;;;;;;9.17;6.43;;;;;;;;;;12970278;22;20512;-91
2022/10/05 05:41:29;;;;;;;10.18;7.10;;;;;;;;;;12971425;22;20382;-91
2022/10/05 05:46:37;;;;;;;8.90;6.88;;;;;;;;;;12968460;22;20730;-90
2022/10/05 05:51:43;;;;;;;12.02;6.72;;;;;;;;;;12970281;22;20374;-91
2022/10/05 05:56:51;;;;;;;10.80;6.93;;;;;;;;;;12970669;22;20401;-92
2022/10/05 06:01:58;;;;;;;8.95;7.28;;;;;;;;;;12970449;22;20379;-92
2022/10/05 06:07:03;;;;;;;7.60;6.72;;;;;;;;;;12971236;22;20374;-91
2022/10/05 06:12:10;;;;;;;7.50;6.53;;;;;;;;;;12971833;22;20358;-93
2022/10/05 06:17:18;;;;;;;11.50;7.20;;;;;;;;;;12971592;22;20363;-93
2022/10/05 06:22:24;;;;;;;8.65;6.93;;;;;;;;;;12971034;22;20402;-92
2022/10/05 06:27:35;;;;;;;9.17;7.13;;;;;;;;;;12971151;22;20366;-92
2022/10/05 06:32:54;;;;;;;8.05;6.85;;;;;;;;;;12970616;22;20374;-91
2022/10/05 06:38:24;;;;;;;8.20;6.60;;;;;;;;;;12972041;22;20366;-90
2022/10/05 06:43:46;;;;;;;11.68;6.90;;;;;;;;;;12970422;22;20383;-91
2022/10/05 06:49:05;;;;;;;9.85;6.90;;;;;;;;;;12969670;22;20393;-91
2022/10/05 06:54:21;;;;;;;7.73;6.60;;;;;;;;;;12970226;22;20374;-91
2022/10/05 06:59:31;;;;;;;8.27;6.85;;;;;;;;;;12970008;22;20405;-92
2022/10/05 07:04:57;;;;;;;8.45;6.72;;;;;;;;;;12969453;22;20401;-92
2022/10/05 07:10:15;;;;;;;8.57;6.50;;;;;;;;;;12964943;22;20370;-92
2022/10/05 07:15:33;;;;;;;6.82;6.13;;;;;;;;;;12971273;22;20363;-92
2022/10/05 07:20:46;;;;;;;6.68;5.97;;;;;;;;;;12969932;22;20436;-92
2022/10/05 07:25:53;;;;;;;7.73;6.00;;;;;;;;;;12969912;22;20946;-91
2022/10/05 07:31:00;;;;;;;8.20;5.78;;;;;;;;;;12969976;22;20699;-91
2022/10/05 07:41:36;;;;;;;8.45;6.40;;;;;;;;;;12970415;22;20414;-91
2022/10/05 07:46:48;;;;;;;7.55;5.60;;;;;;;;;;12967705;22;20677;-92
2022/10/05 07:51:56;;;;;;;8.25;5.63;;;;;;;;;;12968675;22;20362;-92
2022/10/05 07:57:05;;;;;;;7.10;5.43;;;;;;;;;;12968937;22;20366;-92
2022/10/05 08:02:15;;;;;;;8.23;5.70;;;;;;;;;;12967175;22;20440;-91
2022/10/05 08:07:18;;;;;;;6.90;5.33;;;;;;;;;;12969167;22;20842;-92
2022/10/05 08:12:29;;;;;;;6.00;5.20;;;;;;;;;;12969211;22;20371;-91
2022/10/05 08:17:43;;;;;;;6.95;5.32;;;;;;;;;;12969579;22;20448;-91
2022/10/05 08:22:50;;;;;;;7.63;5.70;;;;;;;;;;12969725;22;20469;-91
2022/10/05 08:27:57;;;;;;;10.03;6.03;;;;;;;;;;12970063;22;20759;-91
2022/10/05 08:33:08;;;;;;;7.93;6.45;;;;;;;;;;12970010;22;20390;-90
2022/10/05 08:38:25;;;;;;;11.88;7.28;;;;;;;;;;12969964;22;20377;-92
2022/10/05 08:43:57;;;;;;;9.25;7.72;;;;;;;;;;12969510;22;20378;-91
2022/10/05 08:49:15;;;;;;;10.48;7.78;;;;;;;;;;12967494;22;20374;-92
2022/10/05 08:54:38;;;;;;;10.70;7.70;;;;;;;;;;12967419;22;20371;-91
2022/10/05 09:00:02;;;;;;;15.57;8.20;;;;;;;;;;12968938;22;20443;-93
2022/10/05 09:05:24;;;;;;;12.70;8.30;;;;;;;;;;12967923;22;20823;-91
2022/10/05 09:10:58;;;;;;;10.57;7.63;;;;;;;;;;12968388;22;20772;-91
2022/10/05 09:16:27;;;;;;;10.30;7.17;;;;;;;;;;12963802;22;20695;-90
2022/10/05 09:21:51;;;;;;;10.40;5.40;;;;;;;;;;12970840;22;20378;-91
2022/10/05 09:27:01;;;;;;;7.83;5.90;;;;;;;;;;12971800;22;20457;-91
2022/10/05 09:32:29;;;;;;;10.57;5.80;;;;;;;;;;12972356;22;20370;-92
2022/10/05 09:37:55;;;;;;;10.73;6.90;;;;;;;;;;12974387;22;20378;-91
2022/10/05 09:43:17;;;;;;;8.77;7.00;;;;;;;;;;12978003;22;20442;-93
2022/10/05 09:48:52;;;;;;;9.07;6.33;;;;;;;;;;12970921;22;20448;-91
2022/10/05 09:54:29;;;;;;;9.48;6.30;;;;;;;;;;12970714;22;20428;-92
2022/10/05 10:00:16;;;;;;;11.75;6.78;;;;;;;;;;12971350;22;21159;-92
2022/10/05 10:05:47;;;;;;;8.50;6.07;;;;;;;;;;12970569;22;20379;-93
2022/10/05 10:11:08;;;;;;;8.20;5.80;;;;;;;;;;12971053;22;20370;-91
2022/10/05 10:16:26;;;;;;;9.40;6.50;;;;;;;;;;12971305;22;20370;-91
2022/10/05 10:22:16;;;;;;;10.48;6.82;;;;;;;;;;12970356;22;20378;-89
2022/10/05 10:27:34;;;;;;;8.90;5.57;;;;;;;;;;12971253;22;20389;-91
2022/10/05 10:33:10;;;;;;;7.33;5.57;;;;;;;;;;12969658;22;20371;-91
2022/10/05 10:38:51;;;;;;;5.88;4.95;;;;;;;;;;12971636;22;20420;-90
2022/10/05 10:44:16;;;;;;;9.37;5.40;;;;;;;;;;12969911;22;20379;-92
2022/10/05 10:49:32;;;;;;;8.33;5.20;;;;;;;;;;12970302;22;20432;-91
2022/10/05 10:55:08;;;;;;;7.95;4.55;;;;;;;;;;12970040;22;20839;-93
2022/10/05 11:00:34;;;;;;;7.50;4.38;;;;;;;;;;12970550;22;20405;-91
2022/10/05 11:06:12;;;;;;;6.30;4.00;;;;;;;;;;12969751;22;20839;-92
2022/10/05 11:11:34;;;;;;;7.10;4.40;;;;;;;;;;12964136;22;20371;-91
2022/10/05 11:17:01;;;;;;;6.15;4.55;;;;;;;;;;12962706;22;20378;-89
2022/10/05 11:22:18;;;;;;;6.82;4.75;;;;;;;;;;12962532;22;20481;-90
2022/10/05 11:27:46;;;;;;;7.28;5.47;;;;;;;;;;12962895;22;20664;-91
2022/10/05 11:33:21;;;;;;;9.53;5.77;;;;;;;;;;12949518;22;20384;-92
2022/10/05 11:38:44;;;;;;;8.10;5.65;;;;;;;;;;12961865;22;20402;-90
2022/10/05 11:44:11;;;;;;;8.63;6.63;;;;;;;;;;12962498;22;20574;-90
2022/10/05 11:49:26;;;;;;;7.30;5.10;;;;;;;;;;12961600;22;20371;-90
2022/10/05 13:40:16;;;;;;;5.87;3.97;;;;;;;;;;12910631;22;20435;-87
2022/10/05 13:45:23;;;;;;;7.07;4.20;;;;;;;;;;12915563;23;20467;-87
2022/10/05 13:50:28;;;;;;;5.43;4.10;;;;;;;;;;12917253;23;20387;-87
2022/10/05 13:55:40;;;;;;;9.50;4.30;;;;;;;;;;12917023;23;20396;-87
2022/10/05 14:00:50;;;;;;;7.35;4.40;;;;;;;;;;12916934;23;20468;-87
2022/10/05 14:05:56;;;;;;;6.53;3.97;;;;;;;;;;12914753;23;20742;-87
2022/10/05 14:11:20;;;;;;;6.63;3.78;;;;;;;;;;12911763;23;20356;-85
2022/10/05 14:16:24;;;;;;;6.45;3.53;;;;;;;;;;12917062;23;20384;-86
2022/10/05 14:21:30;;;;;;;5.68;4.00;;;;;;;;;;12917269;23;20376;-85
2022/10/05 14:26:37;;;;;;;6.33;4.43;;;;;;;;;;12915556;23;20364;-87
2022/10/05 14:31:47;;;;;;;6.13;4.60;;;;;;;;;;12914701;23;20899;-87
2022/10/05 14:36:56;;;;;;;7.63;3.70;;;;;;;;;;12917214;23;20384;-86
2022/10/05 14:42:12;;;;;;;5.67;3.40;;;;;;;;;;12916909;23;20479;-86
2022/10/05 14:47:22;;;;;;;5.75;3.70;;;;;;;;;;12914716;23;20787;-85
2022/10/05 14:52:31;;;;;;;4.55;3.45;;;;;;;;;;12962535;22;20358;-86
2022/10/05 14:57:44;;;;;;;5.97;3.28;;;;;;;;;;12979534;22;20400;-86
2022/10/05 15:03:07;;;;;;;5.90;3.50;;;;;;;;;;12979414;22;20458;-86
2022/10/05 15:08:25;;;;;;;4.38;3.28;;;;;;;;;;12979735;22;20378;-86
2022/10/05 15:13:32;;;;;;;5.65;3.17;;;;;;;;;;12979904;22;20382;-86
2022/10/05 15:18:43;;;;;;;6.37;3.33;;;;;;;;;;12978733;22;20372;-86
2022/10/05 15:23:51;;;;;;;3.88;3.08;;;;;;;;;;12978830;22;20378;-86
2022/10/05 15:29:01;;;;;;;5.80;3.03;;;;;;;;;;12975947;22;20853;-87
2022/10/05 15:34:08;;;;;;;4.15;3.03;;;;;;;;;;12978883;22;20653;-87
2022/10/05 15:39:21;;;;;;;3.50;2.83;;;;;;;;;;12977108;22;20441;-87
2022/10/05 15:44:35;;;;;;;7.07;3.08;;;;;;;;;;12977618;22;20744;-86
2022/10/05 15:49:45;;;;;;;4.50;3.23;;;;;;;;;;12973961;22;20369;-89
2022/10/05 15:55:22;;;;;;;3.85;2.50;;;;;;;;;;12974026;22;20691;-89
2022/10/05 16:00:26;;;;;;;5.05;2.78;;;;;;;;;;12968836;22;20366;-89
2022/10/05 16:11:00;;;;;;;5.40;2.67;;;;;;;;;;12968577;22;20374;-90
2022/10/05 16:16:19;;;;;;;6.70;3.30;;;;;;;;;;12965342;22;20469;-86
2022/10/05 16:21:29;;;;;;;5.63;3.00;;;;;;;;;;12966152;22;20386;-86
2022/10/05 16:26:43;;;;;;;6.85;3.40;;;;;;;;;;12969149;22;20413;-87
2022/10/05 16:31:54;;;;;;;4.72;2.83;;;;;;;;;;12974569;22;20464;-87
2022/10/05 16:37:05;;;;;;;3.47;2.83;;;;;;;;;;12975357;22;20679;-87
2022/10/05 16:42:16;;;;;;;6.60;3.10;;;;;;;;;;12974695;22;20410;-86
2022/10/05 16:47:39;;;;;;;4.20;3.57;;;;;;;;;;12975904;22;20494;-87
2022/10/05 16:52:45;;;;;;;3.87;2.90;;;;;;;;;;12954335;22;20391;-87
2022/10/05 16:57:54;;;;;;;6.40;4.60;;;;;;;;;;12973745;22;20386;-86
2022/10/05 17:03:22;;;;;;;5.47;3.50;;;;;;;;;;12968525;22;20448;-88
2022/10/05 17:09:10;;;;;;;10.30;4.50;;;;;;;;;;12972911;22;20853;-88
2022/10/05 17:14:31;;;;;;;8.90;4.33;;;;;;;;;;12857744;22;20726;-89
2022/10/05 17:19:48;;;;;;;6.40;4.00;;;;;;;;;;12973457;22;20449;-89
2022/10/05 17:24:59;;;;;;;17.70;5.03;;;;;;;;;;12965452;22;20908;-87
2022/10/05 17:30:37;;;;;;;15.30;6.57;;;;;;;;;;12965796;22;20397;-87
2022/10/05 17:36:11;;;;;;;11.23;5.43;;;;;;;;;;12952044;22;20446;-86
2022/10/05 17:41:19;;;;;;;9.68;4.95;;;;;;;;;;12967181;22;20471;-87
2022/10/05 17:46:38;;;;;;;10.93;4.40;;;;;;;;;;12965605;22;20866;-87
2022/10/05 17:57:26;;;;;;;7.00;4.97;;;;;;;;;;12960830;22;20399;-90
2022/10/05 18:02:47;;;;;;;9.52;4.80;;;;;;;;;;12937030;22;20393;-88
2022/10/05 18:08:36;;;;;;;7.15;4.63;;;;;;;;;;12958682;22;20444;-89
2022/10/05 18:13:44;;;;;;;9.13;5.63;;;;;;;;;;12962825;22;20371;-88
2022/10/05 18:18:56;;;;;;;9.48;5.45;;;;;;;;;;12963771;22;20362;-88
2022/10/05 18:24:31;;;;;;;8.70;6.00;;;;;;;;;;12962343;22;20469;-88
2022/10/05 18:30:04;;;;;;;7.95;5.80;;;;;;;;;;12962804;22;20457;-88
2022/10/05 18:35:13;;;;;;;10.85;6.78;;;;;;;;;;12963491;22;20401;-89
2022/10/05 18:40:30;;;;;;;9.48;7.18;;;;;;;;;;12961005;22;20390;-90
2022/10/05 18:45:40;;;;;;;8.75;6.22;;;;;;;;;;12966485;22;20386;-87
2022/10/05 18:50:51;;;;;;;8.23;6.68;;;;;;;;;;12966262;22;20381;-89
2022/10/05 18:56:01;;;;;;;9.63;6.68;;;;;;;;;;12965151;22;20417;-90
2022/10/05 19:01:32;;;;;;;11.75;6.55;;;;;;;;;;12965908;22;20366;-88
2022/10/05 19:06:43;;;;;;;8.75;6.18;;;;;;;;;;12965916;22;21253;-89
2022/10/05 19:11:51;;;;;;;8.63;6.47;;;;;;;;;;12967017;22;20793;-88
2022/10/05 19:17:13;;;;;;;10.37;7.00;;;;;;;;;;12966890;22;20881;-89
2022/10/05 19:22:26;;;;;;;9.85;6.95;;;;;;;;;;12967386;22;20473;-88
2022/10/05 19:27:39;;;;;;;8.60;6.90;;;;;;;;;;12967155;22;20476;-88
2022/10/05 19:32:58;;;;;;;16.30;7.28;;;;;;;;;;12969913;22;20457;-88
2022/10/05 19:38:13;;;;;;;10.82;7.35;;;;;;;;;;12969403;22;20382;-89
2022/10/05 19:43:32;;;;;;;10.48;7.97;;;;;;;;;;12968356;22;20387;-89
2022/10/05 19:48:42;;;;;;;9.73;7.47;;;;;;;;;;12971859;22;20699;-88
2022/10/05 19:53:48;;;;;;;10.87;7.70;;;;;;;;;;12968482;22;20374;-88
2022/10/05 19:58:56;;;;;;;11.23;8.50;;;;;;;;;;12969268;22;20371;-89
2022/10/05 20:03:58;;;;;;;12.97;8.90;;;;;;;;;;12968396;22;20432;-90
2022/10/05 20:09:18;;;;;;;12.55;9.38;;;;;;;;;;12968168;22;21431;-89
2022/10/05 20:14:29;;;;;;;11.60;8.97;;;;;;;;;;12970220;22;20771;-89
2022/10/05 20:25:00;;;;;;;14.93;8.45;;;;;;;;;;12962960;22;20501;-90
2022/10/05 20:30:03;;;;;;;12.63;8.75;;;;;;;;;;12963606;22;20392;-89
2022/10/05 20:35:06;;;;;;;15.23;9.23;;;;;;;;;;12960360;22;20417;-88
2022/10/05 20:40:10;;;;;;;12.50;9.23;;;;;;;;;;12965906;22;20389;-88
2022/10/05 20:45:14;;;;;;;13.65;9.63;;;;;;;;;;12965120;22;20819;-88
2022/10/05 20:50:16;;;;;;;17.42;10.55;;;;;;;;;;12964392;22;20684;-89
2022/10/05 20:55:19;;;;;;;17.20;11.80;;;;;;;;;;12961603;22;20358;-87
2022/10/05 21:00:22;;;;;;;16.70;11.30;;;;;;;;;;12964302;22;20599;-88
2022/10/05 21:05:24;;;;;;;15.30;11.70;;;;;;;;;;12969765;22;20406;-88
2022/10/05 21:10:26;;;;;;;16.27;12.27;;;;;;;;;;12971631;22;20370;-87
2022/10/05 21:15:29;;;;;;;15.63;12.00;;;;;;;;;;12972712;22;20392;-87
2022/10/05 21:20:31;;;;;;;18.38;13.02;;;;;;;;;;12976534;22;20428;-87
2022/10/05 21:25:33;;;;;;;16.25;13.00;;;;;;;;;;12976058;22;20382;-87
2022/10/05 21:30:37;;;;;;;18.73;13.35;;;;;;;;;;12974066;22;20355;-87
2022/10/05 21:35:38;;;;;;;19.00;13.73;;;;;;;;;;12975918;22;20385;-88
2022/10/05 21:40:42;;;;;;;15.70;13.80;;;;;;;;;;12975203;22;20366;-86
2022/10/05 21:45:46;;;;;;;19.13;14.23;;;;;;;;;;12976046;22;20389;-88
2022/10/05 21:50:48;;;;;;;19.40;13.35;;;;;;;;;;12976259;22;20359;-88
2022/10/05 21:55:51;;;;;;;16.48;13.52;;;;;;;;;;12976509;22;20354;-88
2022/10/05 22:00:55;;;;;;;16.25;13.57;;;;;;;;;;12975036;22;20362;-88
2022/10/05 22:05:57;;;;;;;16.47;14.03;;;;;;;;;;12975724;22;20382;-88
2022/10/05 22:11:00;;;;;;;18.43;14.23;;;;;;;;;;12974349;22;20686;-89
2022/10/05 22:16:04;;;;;;;18.25;14.02;;;;;;;;;;12976508;22;20374;-88
2022/10/05 22:21:07;;;;;;;18.83;13.80;;;;;;;;;;12975703;22;20858;-88
2022/10/05 22:26:10;;;;;;;16.40;13.70;;;;;;;;;;12974856;22;20874;-88
2022/10/05 22:31:14;;;;;;;18.10;13.73;;;;;;;;;;12975766;22;20366;-89
2022/10/05 22:36:16;;;;;;;18.58;14.40;;;;;;;;;;12974315;22;20370;-88
2022/10/05 22:41:18;;;;;;;22.58;14.63;;;;;;;;;;12973090;22;20358;-88
2022/10/05 22:46:22;;;;;;;21.13;15.88;;;;;;;;;;12969659;22;20782;-88
2022/10/05 22:51:23;;;;;;;21.30;15.10;;;;;;;;;;12972385;22;20398;-88
2022/10/05 22:56:25;;;;;;;21.83;15.98;;;;;;;;;;12971756;22;20390;-88
2022/10/05 23:01:29;;;;;;;20.90;15.25;;;;;;;;;;12972063;22;20724;-88
2022/10/05 23:06:31;;;;;;;24.30;15.43;;;;;;;;;;12973024;22;20374;-88
2022/10/05 23:11:33;;;;;;;18.42;14.73;;;;;;;;;;12971778;22;20366;-88
2022/10/05 23:16:36;;;;;;;21.27;15.75;;;;;;;;;;12971791;22;20835;-89
2022/10/05 23:21:38;;;;;;;21.35;15.27;;;;;;;;;;12971338;22;20747;-88
2022/10/05 23:26:40;;;;;;;21.10;15.25;;;;;;;;;;12971663;22;20421;-88
2022/10/05 23:31:43;;;;;;;20.05;15.05;;;;;;;;;;12972080;22;20374;-88
2022/10/05 23:36:45;;;;;;;21.45;15.45;;;;;;;;;;12970083;22;20390;-88
2022/10/05 23:41:47;;;;;;;22.85;15.88;;;;;;;;;;12971217;22;20873;-88
2022/10/05 23:46:50;;;;;;;20.13;16.08;;;;;;;;;;12970946;22;20874;-89
2022/10/05 23:51:52;;;;;;;20.07;15.87;;;;;;;;;;12971431;22;20382;-88
2022/10/05 23:56:53;;;;;;;20.10;15.40;;;;;;;;;;12971380;22;20355;-88
